Time;durP1;ratioP1;P1;durP2;ratioP2;P2;SDS_P1;SDS_P2;PMS_P1;PMS_P2;Temp;Humidity;BMP_temperature;BMP_pressure;BME280_temperature;BME280_humidity;BME280_pressure;Samples;Min_cycle;Max_cycle;Signal;HPM_P1;HPM_P2
2023/04/18 00:00:17;;;;;;;18.08;12.43;;;;;;;;;;4946003;28;20134;-54
2023/04/18 00:02:44;;;;;;;18.88;12.05;;;;;;;;;;4947505;28;20512;-54
2023/04/18 00:05:11;;;;;;;22.13;13.32;;;;;;;;;;4943407;28;21473;-53
2023/04/18 00:07:36;;;;;;;20.48;13.27;;;;;;;;;;4946152;28;20036;-55
2023/04/18 00:10:03;;;;;;;20.95;12.63;;;;;;;;;;4946977;28;20030;-51
2023/04/18 00:12:28;;;;;;;19.87;13.07;;;;;;;;;;4947707;28;20119;-52
2023/04/18 00:14:54;;;;;;;18.27;12.00;;;;;;;;;;4948134;28;20465;-50
2023/04/18 00:17:19;;;;;;;18.55;12.65;;;;;;;;;;4946353;28;20372;-51
2023/04/18 00:19:45;;;;;;;21.02;13.95;;;;;;;;;;4945531;28;20031;-53
2023/04/18 00:22:12;;;;;;;22.92;13.95;;;;;;;;;;4946982;28;20046;-52
2023/04/18 00:24:37;;;;;;;18.55;13.27;;;;;;;;;;4962355;28;20101;-53
2023/04/18 00:27:02;;;;;;;21.00;13.07;;;;;;;;;;4947297;28;20405;-53
2023/04/18 00:29:28;;;;;;;20.90;12.82;;;;;;;;;;4945937;28;20031;-54
2023/04/18 00:31:53;;;;;;;19.35;12.93;;;;;;;;;;4962047;28;20105;-54
2023/04/18 00:34:19;;;;;;;22.40;13.23;;;;;;;;;;4939399;28;20035;-49
2023/04/18 00:36:45;;;;;;;21.88;12.88;;;;;;;;;;4961084;28;20035;-54
2023/04/18 00:39:10;;;;;;;21.73;12.95;;;;;;;;;;4962194;28;20055;-51
2023/04/18 00:41:35;;;;;;;26.27;16.52;;;;;;;;;;4944187;28;20055;-52
2023/04/18 00:44:01;;;;;;;22.65;13.68;;;;;;;;;;4943712;28;20054;-55
2023/04/18 00:46:26;;;;;;;20.98;12.82;;;;;;;;;;4947275;28;20405;-51
2023/04/18 00:48:52;;;;;;;22.98;13.82;;;;;;;;;;4944925;28;20126;-60
2023/04/18 00:51:17;;;;;;;20.38;12.98;;;;;;;;;;4942800;28;20103;-57
2023/04/18 00:53:43;;;;;;;21.52;13.07;;;;;;;;;;4962939;28;20404;-55
2023/04/18 00:56:08;;;;;;;22.85;13.57;;;;;;;;;;4963428;28;20480;-52
2023/04/18 00:58:34;;;;;;;21.73;13.68;;;;;;;;;;4959589;28;20027;-53
2023/04/18 01:01:00;;;;;;;19.58;13.10;;;;;;;;;;4942795;28;20074;-54
2023/04/18 01:03:25;;;;;;;19.20;12.75;;;;;;;;;;4945397;28;20484;-55
2023/04/18 01:05:52;;;;;;;18.70;12.00;;;;;;;;;;4987654;23;20287;-59
2023/04/18 01:08:18;;;;;;;20.98;12.80;;;;;;;;;;5000517;28;20034;-50
2023/04/18 01:10:43;;;;;;;17.90;13.20;;;;;;;;;;4997014;28;20040;-51
2023/04/18 01:13:13;;;;;;;21.33;13.10;;;;;;;;;;4990618;28;20045;-52
2023/04/18 01:15:39;;;;;;;20.70;13.48;;;;;;;;;;4995116;28;20034;-55
2023/04/18 01:18:06;;;;;;;19.13;13.10;;;;;;;;;;4984545;28;20026;-56
2023/04/18 01:20:34;;;;;;;17.95;13.15;;;;;;;;;;4997507;28;20579;-59
2023/04/18 01:22:59;;;;;;;21.38;13.50;;;;;;;;;;4997266;28;20093;-58
2023/04/18 01:25:25;;;;;;;21.38;13.55;;;;;;;;;;4994824;28;20034;-57
2023/04/18 01:27:50;;;;;;;17.25;12.57;;;;;;;;;;4999479;28;20125;-58
2023/04/18 01:30:15;;;;;;;20.83;12.93;;;;;;;;;;4994284;28;20026;-55
2023/04/18 01:32:41;;;;;;;19.10;11.93;;;;;;;;;;4993816;28;20092;-56
2023/04/18 01:35:06;;;;;;;20.42;13.27;;;;;;;;;;4994686;28;20034;-57
2023/04/18 01:37:33;;;;;;;20.30;12.30;;;;;;;;;;5015167;28;20360;-58
2023/04/18 01:39:59;;;;;;;20.67;13.98;;;;;;;;;;4994315;28;20477;-59
2023/04/18 01:42:24;;;;;;;21.40;13.60;;;;;;;;;;4975701;28;20129;-55
2023/04/18 01:44:49;;;;;;;19.45;12.35;;;;;;;;;;4977352;28;20046;-57
2023/04/18 01:47:15;;;;;;;21.13;12.77;;;;;;;;;;4978847;28;20036;-58
2023/04/18 01:49:45;;;;;;;19.85;13.02;;;;;;;;;;4977243;28;20042;-54
2023/04/18 01:52:12;;;;;;;19.83;12.70;;;;;;;;;;4993445;28;20065;-60
2023/04/18 01:54:38;;;;;;;19.58;12.23;;;;;;;;;;4980992;28;20221;-57
2023/04/18 01:57:03;;;;;;;21.00;13.35;;;;;;;;;;4976915;28;20475;-57
2023/04/18 01:59:28;;;;;;;20.75;12.82;;;;;;;;;;4980856;28;20035;-56
2023/04/18 02:01:54;;;;;;;20.77;13.52;;;;;;;;;;4981024;28;20131;-57
2023/04/18 02:04:19;;;;;;;21.65;13.68;;;;;;;;;;4977641;28;20484;-57
2023/04/18 02:06:45;;;;;;;23.42;13.48;;;;;;;;;;4965834;28;20046;-55
2023/04/18 02:09:10;;;;;;;22.48;14.07;;;;;;;;;;4981263;28;20081;-58
2023/04/18 02:11:36;;;;;;;20.20;12.98;;;;;;;;;;4976099;28;20053;-56
2023/04/18 02:14:01;;;;;;;24.10;13.57;;;;;;;;;;4993944;28;20034;-57
2023/04/18 02:16:27;;;;;;;18.83;11.93;;;;;;;;;;4976810;28;20045;-55
2023/04/18 02:18:52;;;;;;;22.20;12.68;;;;;;;;;;4983039;28;20041;-57
2023/04/18 02:21:17;;;;;;;18.98;12.10;;;;;;;;;;4982343;28;20030;-56
2023/04/18 02:23:42;;;;;;;19.15;13.48;;;;;;;;;;4977005;28;20038;-56
2023/04/18 02:26:08;;;;;;;23.08;15.40;;;;;;;;;;4988554;28;20085;-57
2023/04/18 02:28:33;;;;;;;22.50;13.65;;;;;;;;;;4981039;28;20503;-58
2023/04/18 02:31:01;;;;;;;21.83;13.80;;;;;;;;;;4978483;28;20124;-58
2023/04/18 02:33:27;;;;;;;20.63;13.30;;;;;;;;;;4976139;28;20038;-54
2023/04/18 02:35:52;;;;;;;21.75;12.40;;;;;;;;;;4976223;28;20392;-59
2023/04/18 02:38:17;;;;;;;19.00;12.75;;;;;;;;;;4977345;28;20065;-57
2023/04/18 02:40:42;;;;;;;19.98;12.68;;;;;;;;;;4973907;28;20081;-57
2023/04/18 02:43:08;;;;;;;20.75;14.07;;;;;;;;;;4988277;28;20373;-55
2023/04/18 02:45:33;;;;;;;21.38;12.98;;;;;;;;;;4983472;28;20058;-55
2023/04/18 02:48:00;;;;;;;21.80;13.60;;;;;;;;;;4980853;28;20068;-57
2023/04/18 02:50:25;;;;;;;23.63;13.60;;;;;;;;;;4962281;28;20034;-57
2023/04/18 02:52:53;;;;;;;19.75;13.30;;;;;;;;;;4978887;28;20046;-55
2023/04/18 02:55:20;;;;;;;21.83;13.15;;;;;;;;;;4980903;28;20564;-58
2023/04/18 02:57:46;;;;;;;21.48;13.93;;;;;;;;;;4980566;28;20039;-57
2023/04/18 03:00:40;;;;;;;20.52;12.73;;;;;;;;;;4977130;28;20164;-58
2023/04/18 03:03:28;;;;;;;20.23;13.25;;;;;;;;;;4974140;28;20062;-58
2023/04/18 03:06:16;;;;;;;26.00;15.60;;;;;;;;;;4978740;28;20499;-59
2023/04/18 03:08:41;;;;;;;20.20;13.20;;;;;;;;;;4975691;28;20038;-56
2023/04/18 03:11:07;;;;;;;21.60;13.57;;;;;;;;;;4975317;28;20050;-56
2023/04/18 03:13:33;;;;;;;24.48;14.98;;;;;;;;;;4976510;28;20038;-57
2023/04/18 03:15:59;;;;;;;20.85;13.77;;;;;;;;;;4974498;28;20891;-56
2023/04/18 03:18:26;;;;;;;20.98;13.48;;;;;;;;;;4975754;28;20038;-57
2023/04/18 03:20:55;;;;;;;21.70;13.23;;;;;;;;;;4979183;28;20555;-54
2023/04/18 03:23:20;;;;;;;21.95;14.25;;;;;;;;;;4978145;28;20039;-57
2023/04/18 03:25:46;;;;;;;26.50;14.45;;;;;;;;;;4978566;28;20034;-59
2023/04/18 03:28:11;;;;;;;22.48;13.98;;;;;;;;;;4980735;28;20538;-58
2023/04/18 03:30:38;;;;;;;23.27;14.27;;;;;;;;;;4976675;28;20034;-56
2023/04/18 03:33:04;;;;;;;23.75;13.80;;;;;;;;;;4975335;28;20514;-58
2023/04/18 03:35:30;;;;;;;20.27;13.13;;;;;;;;;;4992330;28;20034;-57
2023/04/18 03:37:55;;;;;;;22.23;13.93;;;;;;;;;;4979389;28;20037;-56
2023/04/18 03:40:28;;;;;;;21.77;14.05;;;;;;;;;;4989936;28;20478;-56
2023/04/18 03:42:58;;;;;;;24.10;13.90;;;;;;;;;;4979760;28;20030;-56
2023/04/18 03:45:24;;;;;;;22.98;15.02;;;;;;;;;;4991302;28;20072;-53
2023/04/18 03:47:50;;;;;;;23.10;13.25;;;;;;;;;;4980269;28;20122;-57
2023/04/18 03:50:15;;;;;;;23.13;14.65;;;;;;;;;;4993933;28;20066;-57
2023/04/18 03:52:43;;;;;;;22.77;14.48;;;;;;;;;;4979745;28;20043;-57
2023/04/18 03:55:08;;;;;;;20.45;13.35;;;;;;;;;;4976684;28;20033;-55
2023/04/18 03:57:34;;;;;;;21.77;14.35;;;;;;;;;;4981934;28;20038;-57
2023/04/18 04:00:03;;;;;;;22.50;14.45;;;;;;;;;;4980854;28;20043;-60
2023/04/18 04:02:40;;;;;;;18.55;13.25;;;;;;;;;;4980497;28;20034;-54
2023/04/18 04:05:07;;;;;;;22.50;12.82;;;;;;;;;;4980454;28;20407;-55
2023/04/18 04:07:33;;;;;;;21.20;13.18;;;;;;;;;;4981380;28;20480;-56
2023/04/18 04:09:59;;;;;;;20.15;13.27;;;;;;;;;;4979321;28;20125;-55
2023/04/18 04:12:25;;;;;;;18.38;12.88;;;;;;;;;;4981593;28;20046;-54
2023/04/18 04:14:50;;;;;;;17.23;11.55;;;;;;;;;;4980512;28;20056;-59
2023/04/18 04:17:16;;;;;;;19.70;12.60;;;;;;;;;;4993731;28;20038;-54
2023/04/18 04:19:42;;;;;;;20.58;13.88;;;;;;;;;;4980480;28;20023;-57
2023/04/18 04:22:10;;;;;;;19.70;13.20;;;;;;;;;;4979476;28;20030;-55
2023/04/18 04:24:37;;;;;;;18.83;13.35;;;;;;;;;;4978168;28;20031;-56
2023/04/18 04:27:04;;;;;;;;;;;;;;;;;;4978282;28;20026;-58
2023/04/18 04:29:29;;;;;;;20.95;12.65;;;;;;;;;;4966939;28;19913;-58
2023/04/18 04:31:57;;;;;;;;;;;;;;;;;;4979863;28;20039;-58
2023/04/18 04:34:33;;;;;;;17.95;11.30;;;;;;;;;;4983466;28;20695;-58
2023/04/18 04:37:01;;;;;;;16.52;11.27;;;;;;;;;;4985053;28;20049;-53
2023/04/18 04:39:28;;;;;;;20.98;13.02;;;;;;;;;;4979082;28;20050;-55
2023/04/18 04:42:08;;;;;;;17.35;12.57;;;;;;;;;;4981738;28;20046;-57
2023/04/18 04:44:43;;;;;;;18.15;12.15;;;;;;;;;;4983015;28;20084;-57
2023/04/18 04:47:08;;;;;;;19.70;12.48;;;;;;;;;;4974965;28;20038;-54
2023/04/18 04:49:35;;;;;;;20.08;12.95;;;;;;;;;;4982768;28;20033;-58
2023/04/18 04:52:02;;;;;;;20.05;12.38;;;;;;;;;;4979620;28;20062;-60
2023/04/18 04:54:27;;;;;;;17.50;12.38;;;;;;;;;;4993567;28;20806;-54
2023/04/18 04:56:53;;;;;;;18.55;11.70;;;;;;;;;;4980899;28;20027;-60
2023/04/18 04:59:18;;;;;;;18.42;12.07;;;;;;;;;;4984649;28;20104;-54
2023/04/18 05:01:45;;;;;;;21.35;12.60;;;;;;;;;;4973608;28;20416;-57
2023/04/18 05:04:11;;;;;;;18.75;12.80;;;;;;;;;;4975402;28;20031;-55
2023/04/18 05:06:36;;;;;;;20.38;12.38;;;;;;;;;;4980151;28;20042;-51
2023/04/18 05:09:02;;;;;;;19.55;12.93;;;;;;;;;;4974418;28;20034;-55
2023/04/18 05:11:27;;;;;;;18.48;12.00;;;;;;;;;;4974880;28;20050;-54
2023/04/18 05:13:52;;;;;;;16.27;11.35;;;;;;;;;;4972252;28;20041;-57
2023/04/18 05:16:18;;;;;;;21.48;13.20;;;;;;;;;;4976170;28;20153;-53
2023/04/18 05:18:43;;;;;;;21.25;13.52;;;;;;;;;;4978947;28;20129;-55
2023/04/18 05:21:08;;;;;;;17.92;12.00;;;;;;;;;;4978108;28;20062;-55
2023/04/18 05:23:35;;;;;;;19.92;12.73;;;;;;;;;;4979338;28;20031;-56
2023/04/18 05:26:01;;;;;;;17.23;11.63;;;;;;;;;;4980172;28;20041;-57
2023/04/18 05:28:27;;;;;;;16.67;11.63;;;;;;;;;;4992070;28;20085;-58
2023/04/18 05:30:59;;;;;;;20.38;12.18;;;;;;;;;;4977935;28;20034;-58
2023/04/18 05:33:25;;;;;;;20.77;12.23;;;;;;;;;;4977646;28;20487;-59
2023/04/18 05:35:50;;;;;;;18.63;12.35;;;;;;;;;;4976951;28;20034;-58
2023/04/18 05:38:15;;;;;;;18.60;12.38;;;;;;;;;;4977096;28;20030;-57
2023/04/18 05:40:42;;;;;;;20.90;12.75;;;;;;;;;;4980093;28;20066;-58
2023/04/18 05:43:07;;;;;;;18.80;12.25;;;;;;;;;;4978746;28;20039;-57
2023/04/18 05:45:32;;;;;;;18.35;12.20;;;;;;;;;;4976963;28;20022;-58
2023/04/18 05:47:58;;;;;;;17.80;12.20;;;;;;;;;;4974880;28;20094;-58
2023/04/18 05:50:23;;;;;;;18.60;11.60;;;;;;;;;;4978450;28;20031;-56
2023/04/18 05:52:48;;;;;;;17.55;12.10;;;;;;;;;;4976805;28;20487;-56
2023/04/18 05:55:14;;;;;;;20.25;12.38;;;;;;;;;;4979885;28;20030;-52
2023/04/18 05:57:40;;;;;;;19.05;12.25;;;;;;;;;;4979788;28;20026;-53
2023/04/18 06:00:06;;;;;;;21.88;12.75;;;;;;;;;;4973707;28;20428;-56
2023/04/18 06:02:38;;;;;;;18.80;12.40;;;;;;;;;;4979981;28;20038;-57
2023/04/18 06:05:03;;;;;;;17.95;12.05;;;;;;;;;;4994345;28;20408;-52
2023/04/18 06:07:28;;;;;;;23.73;13.13;;;;;;;;;;4976617;28;20392;-58
2023/04/18 06:09:54;;;;;;;20.30;13.32;;;;;;;;;;4978441;28;20038;-57
2023/04/18 06:12:20;;;;;;;19.02;12.13;;;;;;;;;;4976090;28;20042;-58
2023/04/18 06:14:45;;;;;;;21.05;12.43;;;;;;;;;;4981066;28;20027;-59
2023/04/18 06:17:11;;;;;;;19.70;12.55;;;;;;;;;;4976807;28;20047;-56
2023/04/18 06:19:38;;;;;;;18.85;12.70;;;;;;;;;;4971724;28;20062;-57
2023/04/18 06:22:03;;;;;;;15.73;11.35;;;;;;;;;;4978395;28;20038;-57
2023/04/18 06:24:29;;;;;;;19.58;11.65;;;;;;;;;;4976837;28;20080;-55
2023/04/18 06:26:54;;;;;;;18.38;12.07;;;;;;;;;;4973632;28;20038;-58
2023/04/18 06:29:21;;;;;;;18.55;11.90;;;;;;;;;;4986423;28;20084;-52
2023/04/18 06:31:47;;;;;;;18.38;11.95;;;;;;;;;;4978458;28;20085;-55
2023/04/18 06:34:12;;;;;;;17.25;12.13;;;;;;;;;;4982576;28;20492;-54
2023/04/18 06:36:37;;;;;;;21.08;12.88;;;;;;;;;;4980927;28;20073;-53
2023/04/18 06:39:03;;;;;;;16.58;11.57;;;;;;;;;;4995132;28;20046;-53
2023/04/18 06:41:28;;;;;;;20.38;13.43;;;;;;;;;;4977012;28;20030;-57
2023/04/18 06:43:53;;;;;;;18.95;12.98;;;;;;;;;;4976783;28;20883;-58
2023/04/18 06:46:19;;;;;;;17.58;12.60;;;;;;;;;;4977589;28;20034;-54
2023/04/18 06:48:44;;;;;;;18.27;12.20;;;;;;;;;;4983178;28;20027;-57
2023/04/18 06:51:09;;;;;;;20.15;13.40;;;;;;;;;;4975928;28;20030;-57
2023/04/18 06:53:35;;;;;;;20.17;13.27;;;;;;;;;;4979762;28;20082;-56
2023/04/18 06:56:00;;;;;;;18.63;12.43;;;;;;;;;;4979221;28;20034;-57
2023/04/18 06:58:25;;;;;;;18.25;13.05;;;;;;;;;;4970896;28;20468;-54
2023/04/18 07:00:51;;;;;;;19.70;12.20;;;;;;;;;;4975972;28;20133;-59
2023/04/18 07:03:17;;;;;;;18.83;12.07;;;;;;;;;;4976097;28;20042;-54
2023/04/18 07:05:42;;;;;;;19.38;12.07;;;;;;;;;;4977352;28;20039;-55
2023/04/18 07:08:07;;;;;;;19.73;13.07;;;;;;;;;;4981171;28;20073;-57
2023/04/18 07:10:32;;;;;;;21.17;13.23;;;;;;;;;;4974002;28;20428;-53
2023/04/18 07:12:58;;;;;;;17.40;12.13;;;;;;;;;;4978632;28;20061;-56
2023/04/18 07:15:23;;;;;;;17.80;12.30;;;;;;;;;;4974950;28;20050;-55
2023/04/18 07:17:48;;;;;;;18.40;12.20;;;;;;;;;;4974233;28;20030;-56
2023/04/18 07:20:14;;;;;;;19.73;11.82;;;;;;;;;;4971794;28;20271;-57
2023/04/18 07:22:40;;;;;;;17.73;11.77;;;;;;;;;;4990004;28;20065;-55
2023/04/18 07:25:06;;;;;;;21.73;12.55;;;;;;;;;;4978461;28;20118;-57
2023/04/18 07:27:33;;;;;;;23.45;12.82;;;;;;;;;;4981940;28;20054;-53
2023/04/18 07:29:58;;;;;;;18.35;12.68;;;;;;;;;;4982911;28;20594;-57
2023/04/18 07:32:23;;;;;;;19.42;12.27;;;;;;;;;;4984711;28;20146;-53
2023/04/18 07:34:50;;;;;;;19.25;11.32;;;;;;;;;;4982332;28;20089;-57
2023/04/18 07:37:17;;;;;;;20.15;12.23;;;;;;;;;;4981406;28;20030;-58
2023/04/18 07:39:42;;;;;;;18.17;11.75;;;;;;;;;;4981856;28;20100;-57
2023/04/18 07:42:08;;;;;;;19.92;12.07;;;;;;;;;;4979683;28;20031;-57
2023/04/18 07:44:34;;;;;;;18.88;12.15;;;;;;;;;;4983098;28;20030;-56
2023/04/18 07:46:59;;;;;;;21.60;12.85;;;;;;;;;;4995106;28;20502;-58
2023/04/18 07:49:24;;;;;;;17.80;11.52;;;;;;;;;;4979969;28;20031;-55
2023/04/18 07:51:50;;;;;;;17.50;11.73;;;;;;;;;;4980124;28;20918;-56
2023/04/18 07:54:15;;;;;;;16.10;11.43;;;;;;;;;;4980203;28;20081;-57
2023/04/18 07:56:40;;;;;;;17.00;12.18;;;;;;;;;;4980325;28;20066;-56
2023/04/18 07:59:06;;;;;;;18.38;11.77;;;;;;;;;;4978832;28;20038;-57
2023/04/18 08:01:31;;;;;;;20.23;11.52;;;;;;;;;;4979123;28;20071;-56
2023/04/18 08:04:00;;;;;;;17.40;11.70;;;;;;;;;;4981076;28;20400;-57
2023/04/18 08:06:25;;;;;;;16.40;11.20;;;;;;;;;;4980609;28;20181;-58
2023/04/18 08:08:51;;;;;;;16.67;11.32;;;;;;;;;;4981228;28;20030;-58
2023/04/18 08:11:16;;;;;;;17.67;12.48;;;;;;;;;;4982458;28;20037;-59
2023/04/18 08:13:41;;;;;;;16.23;11.68;;;;;;;;;;4977703;28;20076;-57
2023/04/18 08:16:07;;;;;;;15.05;10.68;;;;;;;;;;4979445;28;20484;-55
2023/04/18 08:18:32;;;;;;;16.35;11.40;;;;;;;;;;4980299;28;20042;-57
2023/04/18 08:20:58;;;;;;;16.80;11.43;;;;;;;;;;4985414;28;20477;-57
2023/04/18 08:23:23;;;;;;;16.45;11.07;;;;;;;;;;4978174;28;20018;-55
2023/04/18 08:25:48;;;;;;;17.90;11.85;;;;;;;;;;4979762;28;20054;-53
2023/04/18 08:28:14;;;;;;;16.42;11.10;;;;;;;;;;4981763;28;20026;-56
2023/04/18 08:30:41;;;;;;;17.27;11.18;;;;;;;;;;4981905;28;20076;-53
2023/04/18 08:33:06;;;;;;;17.30;10.93;;;;;;;;;;4979793;28;20042;-56
2023/04/18 08:35:32;;;;;;;15.75;10.95;;;;;;;;;;4980896;28;20031;-54
2023/04/18 08:37:57;;;;;;;17.55;10.70;;;;;;;;;;4978116;28;20387;-55
2023/04/18 08:40:23;;;;;;;17.23;12.27;;;;;;;;;;4979679;28;20070;-57
2023/04/18 08:42:50;;;;;;;17.75;12.32;;;;;;;;;;4980372;28;20038;-58
2023/04/18 08:45:16;;;;;;;16.30;11.30;;;;;;;;;;4978523;28;20105;-56
2023/04/18 08:47:42;;;;;;;15.70;11.38;;;;;;;;;;4979277;28;20129;-54
2023/04/18 08:50:08;;;;;;;15.00;10.95;;;;;;;;;;4979517;28;20026;-59
2023/04/18 08:52:38;;;;;;;14.85;11.10;;;;;;;;;;4980659;28;20039;-58
2023/04/18 08:55:04;;;;;;;15.80;10.75;;;;;;;;;;4983157;28;20883;-58
2023/04/18 08:57:30;;;;;;;15.90;10.45;;;;;;;;;;4981055;28;20046;-58
2023/04/18 08:59:55;;;;;;;15.30;10.13;;;;;;;;;;4979044;28;20038;-56
2023/04/18 09:02:22;;;;;;;15.25;10.77;;;;;;;;;;4979074;28;20314;-58
2023/04/18 09:04:51;;;;;;;14.90;10.70;;;;;;;;;;4979426;28;20890;-55
2023/04/18 09:07:27;;;;;;;14.70;10.88;;;;;;;;;;4979341;28;20619;-58
2023/04/18 09:09:53;;;;;;;15.40;11.15;;;;;;;;;;4977325;28;20768;-56
2023/04/18 09:12:28;;;;;;;15.82;10.73;;;;;;;;;;4984430;28;20547;-53
2023/04/18 09:15:10;;;;;;;15.05;9.77;;;;;;;;;;4978375;28;20042;-56
2023/04/18 09:17:37;;;;;;;15.25;9.65;;;;;;;;;;4978111;28;20030;-55
2023/04/18 09:20:09;;;;;;;13.23;9.63;;;;;;;;;;4979782;28;20042;-58
2023/04/18 09:22:44;;;;;;;15.32;9.90;;;;;;;;;;4977223;28;20081;-57
2023/04/18 09:25:10;;;;;;;14.02;9.43;;;;;;;;;;4977368;28;20038;-57
2023/04/18 09:27:36;;;;;;;12.88;8.85;;;;;;;;;;4976152;28;20026;-58
2023/04/18 09:30:01;;;;;;;11.75;9.32;;;;;;;;;;4979444;28;20034;-58
2023/04/18 09:32:28;;;;;;;15.93;9.95;;;;;;;;;;4982228;28;20038;-55
2023/04/18 09:35:00;;;;;;;12.20;9.43;;;;;;;;;;4984383;28;20077;-58
2023/04/18 09:37:26;;;;;;;20.10;12.20;;;;;;;;;;4978610;28;20472;-55
2023/04/18 09:39:52;;;;;;;15.07;11.20;;;;;;;;;;4977363;28;20043;-57
2023/04/18 09:42:17;;;;;;;14.68;10.65;;;;;;;;;;4978662;28;20088;-58
2023/04/18 09:44:58;;;;;;;14.13;9.80;;;;;;;;;;4978989;28;20567;-58
2023/04/18 09:47:24;;;;;;;12.88;8.82;;;;;;;;;;4978815;28;20559;-57
2023/04/18 09:49:50;;;;;;;14.27;9.80;;;;;;;;;;4980934;28;20089;-57
2023/04/18 09:52:15;;;;;;;11.80;8.23;;;;;;;;;;4976001;28;20042;-57
2023/04/18 09:54:43;;;;;;;11.55;8.52;;;;;;;;;;4983712;28;20046;-58
2023/04/18 09:57:09;;;;;;;12.65;9.10;;;;;;;;;;4980186;28;20109;-58
2023/04/18 09:59:40;;;;;;;11.82;8.65;;;;;;;;;;4977710;28;20049;-57
2023/04/18 10:02:09;;;;;;;11.23;8.60;;;;;;;;;;4978037;28;20792;-57
2023/04/18 10:04:35;;;;;;;11.68;8.50;;;;;;;;;;4977078;28;20027;-55
2023/04/18 10:07:01;;;;;;;12.52;9.02;;;;;;;;;;4979770;28;20064;-58
2023/04/18 10:09:30;;;;;;;12.10;8.88;;;;;;;;;;4979187;28;20066;-55
2023/04/18 10:11:56;;;;;;;13.52;8.95;;;;;;;;;;4978390;28;20076;-57
2023/04/18 10:14:21;;;;;;;11.00;7.90;;;;;;;;;;4981236;28;20034;-56
2023/04/18 10:16:47;;;;;;;11.77;8.63;;;;;;;;;;4977230;28;20404;-56
2023/04/18 10:19:40;;;;;;;11.02;8.00;;;;;;;;;;4979567;28;20973;-57
2023/04/18 10:22:06;;;;;;;11.23;8.35;;;;;;;;;;4979667;28;20126;-57
2023/04/18 10:24:44;;;;;;;10.82;7.85;;;;;;;;;;4978631;28;20106;-56
2023/04/18 10:27:09;;;;;;;11.20;7.55;;;;;;;;;;4980220;28;20038;-58
2023/04/18 10:29:48;;;;;;;12.35;8.35;;;;;;;;;;4979071;28;20058;-52
2023/04/18 10:32:13;;;;;;;12.43;8.05;;;;;;;;;;4979054;28;20049;-58
2023/04/18 10:34:39;;;;;;;13.90;8.20;;;;;;;;;;4977629;28;20026;-56
2023/04/18 10:37:05;;;;;;;11.65;8.05;;;;;;;;;;4977071;28;20081;-55
2023/04/18 10:39:45;;;;;;;11.63;7.57;;;;;;;;;;4978424;28;20042;-57
2023/04/18 10:42:10;;;;;;;11.02;7.65;;;;;;;;;;4979112;28;20053;-59
2023/04/18 10:44:36;;;;;;;11.82;7.07;;;;;;;;;;4992522;28;20034;-58
2023/04/18 10:47:07;;;;;;;10.15;7.53;;;;;;;;;;4977545;28;20125;-58
2023/04/18 10:49:34;;;;;;;12.40;8.23;;;;;;;;;;4977779;28;20040;-53
2023/04/18 10:52:00;;;;;;;;;;;;;;;;;;4981941;28;20045;-58
2023/04/18 10:54:34;;;;;;;12.43;7.70;;;;;;;;;;4982834;28;19914;-56
2023/04/18 10:57:01;;;;;;;9.93;7.10;;;;;;;;;;4984135;28;20034;-56
2023/04/18 10:59:27;;;;;;;;;;;;;;;;;;4992791;28;20113;-56
2023/04/18 11:01:54;;;;;;;13.87;7.43;;;;;;;;;;4979206;28;19937;-59
2023/04/18 11:04:19;;;;;;;12.18;7.97;;;;;;;;;;4987251;28;20117;-59
2023/04/18 11:06:46;;;;;;;11.40;8.15;;;;;;;;;;4985152;28;20450;-57
2023/04/18 11:09:12;;;;;;;13.52;8.30;;;;;;;;;;4983051;28;20110;-58
2023/04/18 11:11:37;;;;;;;12.57;8.05;;;;;;;;;;4983130;28;20062;-54
2023/04/18 11:14:02;;;;;;;10.73;7.93;;;;;;;;;;4980214;28;20480;-55
2023/04/18 11:16:29;;;;;;;13.45;8.43;;;;;;;;;;4981844;28;20035;-55
2023/04/18 11:18:54;;;;;;;14.65;9.35;;;;;;;;;;4982669;28;20030;-57
2023/04/18 11:21:20;;;;;;;13.18;8.80;;;;;;;;;;4982590;28;20451;-55
2023/04/18 11:23:45;;;;;;;13.77;8.30;;;;;;;;;;4987702;28;20038;-55
2023/04/18 11:26:16;;;;;;;12.77;8.30;;;;;;;;;;4983927;28;20031;-57
2023/04/18 11:28:41;;;;;;;11.88;8.25;;;;;;;;;;4984512;28;20048;-54
2023/04/18 11:31:07;;;;;;;13.70;8.57;;;;;;;;;;4979825;28;20033;-57
2023/04/18 11:33:32;;;;;;;10.90;7.63;;;;;;;;;;4985606;28;20045;-57
2023/04/18 11:35:58;;;;;;;12.70;7.80;;;;;;;;;;4981414;28;20377;-55
2023/04/18 11:38:27;;;;;;;13.00;6.53;;;;;;;;;;4983504;28;20045;-56
2023/04/18 11:40:52;;;;;;;9.57;7.03;;;;;;;;;;4977894;28;20062;-57
2023/04/18 11:43:19;;;;;;;9.15;6.07;;;;;;;;;;4982037;28;20030;-53
2023/04/18 11:45:44;;;;;;;;;;;;;;;;;;4978007;28;20645;-58
2023/04/18 11:48:10;;;;;;;8.67;6.13;;;;;;;;;;4981598;28;20575;-55
2023/04/18 11:50:36;;;;;;;8.93;5.88;;;;;;;;;;4981676;28;20540;-53
2023/04/18 11:53:01;;;;;;;9.00;5.53;;;;;;;;;;4979594;28;20097;-56
2023/04/18 11:55:27;;;;;;;9.18;5.85;;;;;;;;;;4981119;28;20438;-58
2023/04/18 11:57:53;;;;;;;9.38;5.78;;;;;;;;;;4981269;28;20664;-55
2023/04/18 12:00:20;;;;;;;7.72;5.50;;;;;;;;;;4982803;28;20057;-57
2023/04/18 12:02:47;;;;;;;7.72;5.50;;;;;;;;;;4993824;28;20468;-59
2023/04/18 12:05:23;;;;;;;8.45;4.93;;;;;;;;;;4980425;28;20038;-57
2023/04/18 12:07:48;;;;;;;8.00;4.47;;;;;;;;;;4980535;28;20030;-56
2023/04/18 12:10:19;;;;;;;6.40;4.38;;;;;;;;;;4981869;28;20034;-58
2023/04/18 12:12:53;;;;;;;7.22;4.00;;;;;;;;;;4979913;28;20047;-57
2023/04/18 12:15:19;;;;;;;5.82;4.35;;;;;;;;;;4981225;28;20034;-55
2023/04/18 12:17:45;;;;;;;8.25;4.78;;;;;;;;;;4983078;28;20057;-57
2023/04/18 12:20:12;;;;;;;6.83;4.53;;;;;;;;;;4983931;28;20026;-54
2023/04/18 12:22:38;;;;;;;7.72;5.10;;;;;;;;;;4981257;28;20286;-53
2023/04/18 12:25:24;;;;;;;8.18;4.80;;;;;;;;;;4984315;28;20484;-58
2023/04/18 12:27:50;;;;;;;7.97;5.40;;;;;;;;;;4994640;28;20066;-56
2023/04/18 12:30:15;;;;;;;7.43;4.68;;;;;;;;;;4979363;28;20397;-56
2023/04/18 12:32:41;;;;;;;7.55;5.25;;;;;;;;;;4981022;28;20052;-58
2023/04/18 12:35:07;;;;;;;5.82;4.30;;;;;;;;;;4981541;28;20096;-57
2023/04/18 12:37:32;;;;;;;6.32;4.53;;;;;;;;;;4981970;28;20165;-57
2023/04/18 12:39:57;;;;;;;7.32;4.88;;;;;;;;;;4978026;28;20042;-58
2023/04/18 12:42:22;;;;;;;6.95;4.68;;;;;;;;;;4980797;28;20475;-53
2023/04/18 12:44:48;;;;;;;6.45;4.35;;;;;;;;;;4982613;28;20079;-54
2023/04/18 12:47:13;;;;;;;5.78;3.70;;;;;;;;;;4981748;28;20037;-57
2023/04/18 12:49:38;;;;;;;6.07;3.70;;;;;;;;;;4980614;28;20472;-56
2023/04/18 12:52:04;;;;;;;6.13;4.30;;;;;;;;;;4979268;28;20460;-52
2023/04/18 12:54:29;;;;;;;5.65;4.03;;;;;;;;;;4986347;28;20034;-53
2023/04/18 12:56:55;;;;;;;7.13;4.22;;;;;;;;;;4982585;28;20027;-57
2023/04/18 12:59:20;;;;;;;6.65;4.70;;;;;;;;;;4982329;28;20113;-55
2023/04/18 13:01:46;;;;;;;6.30;4.30;;;;;;;;;;4980173;28;20503;-53
2023/04/18 13:04:11;;;;;;;6.43;4.70;;;;;;;;;;4982481;28;20113;-57
2023/04/18 13:06:37;;;;;;;7.63;4.95;;;;;;;;;;4982029;28;20122;-57
2023/04/18 13:09:03;;;;;;;6.47;4.72;;;;;;;;;;4981790;28;20035;-58
2023/04/18 13:11:28;;;;;;;6.93;5.15;;;;;;;;;;4983103;28;20037;-57
2023/04/18 13:13:54;;;;;;;9.23;5.07;;;;;;;;;;4985225;28;20046;-55
2023/04/18 13:16:19;;;;;;;9.15;6.03;;;;;;;;;;4979981;28;20035;-55
2023/04/18 13:18:45;;;;;;;7.80;5.38;;;;;;;;;;4984362;28;20133;-58
2023/04/18 13:21:10;;;;;;;8.98;5.70;;;;;;;;;;4981455;28;20050;-59
2023/04/18 13:23:35;;;;;;;8.38;5.55;;;;;;;;;;4980674;28;20065;-51
2023/04/18 13:26:01;;;;;;;7.93;5.30;;;;;;;;;;4977904;28;20073;-57
2023/04/18 13:28:26;;;;;;;7.90;4.78;;;;;;;;;;4979376;28;20037;-56
2023/04/18 13:30:51;;;;;;;7.63;5.55;;;;;;;;;;4984303;28;20038;-57
2023/04/18 13:33:17;;;;;;;8.98;5.47;;;;;;;;;;4980646;28;20039;-55
2023/04/18 13:35:42;;;;;;;7.40;5.20;;;;;;;;;;4976382;28;20035;-58
2023/04/18 13:38:07;;;;;;;8.77;5.82;;;;;;;;;;4981352;28;20057;-57
2023/04/18 13:40:33;;;;;;;8.18;5.43;;;;;;;;;;4979499;28;20062;-54
2023/04/18 13:42:58;;;;;;;6.95;4.90;;;;;;;;;;4981109;28;20495;-57
2023/04/18 13:45:23;;;;;;;7.82;5.18;;;;;;;;;;4974124;28;20081;-56
2023/04/18 13:47:49;;;;;;;7.15;4.57;;;;;;;;;;4983817;28;20080;-55
2023/04/18 13:50:15;;;;;;;6.75;4.38;;;;;;;;;;4977503;28;20042;-54
2023/04/18 13:52:40;;;;;;;7.03;4.60;;;;;;;;;;4977299;28;20042;-53
2023/04/18 13:55:06;;;;;;;6.05;4.00;;;;;;;;;;4978709;28;20041;-55
2023/04/18 13:57:32;;;;;;;9.20;4.63;;;;;;;;;;4977003;28;20061;-58
2023/04/18 13:59:57;;;;;;;7.00;4.90;;;;;;;;;;4980132;28;20058;-56
2023/04/18 14:02:23;;;;;;;6.35;4.57;;;;;;;;;;4979174;28;20042;-55
2023/04/18 14:04:48;;;;;;;6.70;4.80;;;;;;;;;;4978718;28;20154;-54
2023/04/18 14:07:13;;;;;;;6.32;4.38;;;;;;;;;;4979848;28;20476;-56
2023/04/18 14:09:39;;;;;;;6.35;4.53;;;;;;;;;;4976877;28;20070;-56
2023/04/18 14:12:04;;;;;;;5.85;4.60;;;;;;;;;;4978415;28;20043;-56
2023/04/18 14:14:31;;;;;;;6.90;4.70;;;;;;;;;;4978292;28;20133;-55
2023/04/18 14:16:56;;;;;;;8.00;5.40;;;;;;;;;;4978257;28;20145;-56
2023/04/18 14:19:21;;;;;;;8.95;5.13;;;;;;;;;;4980533;28;20500;-55
2023/04/18 14:21:47;;;;;;;8.02;5.20;;;;;;;;;;4979884;28;20030;-55